Rio Bravo, Texas
Current Conditions -  °F | °C
As of 11:56 PM on Friday 31 Oct 2014 (Local Time) from KLRD Reporting Station
Clear Clear  
Wind Chill: 63°   Ceiling: Unl
Heat Index: 63°   Visibility: 10mi
Dew Point: 48°   Wind: 3mph
Humidity: 58%   Direction: 60°ENE
Pressure: 30.29"   Gusts: NA
Location:  27.4721°N, 99.1091°W
Report Text: KLRD 010456Z AUTO 06003KT 10SM CLR 17/09 A3029 RMK AO2 T01720088 402610166 SLP250
Loading
Personal Weather Stations






























Interactive Weather Map
Tropical Storm Tracking
New forecast layout! Learn more

10-Day Weather Forecast

Advertisements
Track Severe Weather on mobile